Davao, Philippines
Current Conditions -  °F | °C
As of 12:00 PM on Sunday 21 Dec 2014 (Local Time) from RPMD Reporting Station
Few Clouds Few Clouds  
Wind Chill: 88°   Ceiling: Unl
Heat Index: 100°   Visibility: 6mi
Dew Point: 77°   Wind: 10mph
Humidity: 70%   Direction: 40°NE
Pressure: 29.77"   Gusts: NA
Location:  7.11°N, 125.63°E
Report Text: RPMD 210400Z 04009KT 9999 FEW016 31/25 Q1008 RMK A2977
Loading
Personal Weather Stations






























Interactive Weather Map New forecast layout! Learn more

10-Day Weather Forecast

Advertisements
Track Severe Weather on mobile